Terminal Aerodrome Forecast
Issued by NWS Riverton, WY

Home | Current Version | Previous Version | Text Only | Print | Product List | Glossary On
Versions: 1 2 3 4 5 6 7 8 9 10 11 12 13 14 15
000
FTUS45 KRIW 272333
TAFRIW
TAF
KRIW 272333Z 2800/2824 29020G30KT P6SM VCTS SCT070CB BKN100
     FM280200 36014G22KT P6SM SCT080 SCT120
     FM280600 VRB06KT P6SM SCT100
     FM281700 28010KT P6SM FEW100
     FM282200 02014G25KT P6SM VCTS SCT070CB BKN090=

USA.gov is the U.S. government's official web portal to all federal, state and local government web resources and services.